Terminal Aerodrome Forecast
Issued by NWS

Home | Current Version | Previous Version | Graphics & Text | Print | Product List | Glossary On
Versions: 1 2 3 4 5 6 7 8 9 10 11 12 13 14 15 16
176
FTUS41 KCLE 141747
TAFFDY
TAF
KFDY 141747Z 1418/1518 29006KT P6SM OVC250
     FM150300 25004KT P6SM OVC250
     FM150500 VRB03KT P6SM SCT100 OVC200
     FM151100 20007KT P6SM BKN045
     FM151600 23012KT 6SM -SN OVC030=

USA.gov is the U.S. government's official web portal to all federal, state and local government web resources and services.